sensor_id;sensor_type;location;lat;lon;timestamp;pressure;altitude;pressure_sealevel;temperature;humidity
44453;BME280;30155;52.164;21.236;2023-07-31T00:01:11;99882.42;;;17.42;74.36
44453;BME280;30155;52.164;21.236;2023-07-31T00:41:08;99888.86;;;17.22;74.64
44453;BME280;30155;52.164;21.236;2023-07-31T00:54:31;99883.41;;;17.08;74.83
44453;BME280;30155;52.164;21.236;2023-07-31T02:07:04;99898.51;;;16.20;76.08
44453;BME280;30155;52.164;21.236;2023-07-31T02:12:06;99902.10;;;16.15;76.09
44453;BME280;30155;52.164;21.236;2023-07-31T02:17:18;99903.23;;;16.11;76.06
44453;BME280;30155;52.164;21.236;2023-07-31T02:23:58;99899.88;;;16.04;75.97
44453;BME280;30155;52.164;21.236;2023-07-31T02:57:08;99926.91;;;15.87;77.21
44453;BME280;30155;52.164;21.236;2023-07-31T03:24:05;99923.33;;;16.20;77.92
44453;BME280;30155;52.164;21.236;2023-07-31T03:37:33;99923.70;;;16.38;78.19
44453;BME280;30155;52.164;21.236;2023-07-31T04:56:51;99979.89;;;17.47;75.93
44453;BME280;30155;52.164;21.236;2023-07-31T05:03:16;99977.09;;;17.55;75.37
44453;BME280;30155;52.164;21.236;2023-07-31T05:09:29;99981.30;;;17.62;75.06
44453;BME280;30155;52.164;21.236;2023-07-31T05:16:04;99976.64;;;17.66;74.80
44453;BME280;30155;52.164;21.236;2023-07-31T05:22:43;99976.14;;;17.72;74.49
44453;BME280;30155;52.164;21.236;2023-07-31T05:28:50;99980.58;;;17.77;74.20
44453;BME280;30155;52.164;21.236;2023-07-31T05:34:34;99981.39;;;17.88;73.86
44453;BME280;30155;52.164;21.236;2023-07-31T05:46:46;99985.63;;;18.35;73.37
44453;BME280;30155;52.164;21.236;2023-07-31T06:04:42;100005.45;;;18.68;72.13
44453;BME280;30155;52.164;21.236;2023-07-31T06:24:29;100015.45;;;19.47;70.21
44453;BME280;30155;52.164;21.236;2023-07-31T06:30:19;100023.39;;;19.64;69.19
44453;BME280;30155;52.164;21.236;2023-07-31T06:42:35;100029.02;;;19.57;69.14
44453;BME280;30155;52.164;21.236;2023-07-31T06:48:41;100025.47;;;19.47;69.42
44453;BME280;30155;52.164;21.236;2023-07-31T07:01:03;100034.25;;;19.42;70.24
44453;BME280;30155;52.164;21.236;2023-07-31T07:06:26;100036.95;;;19.51;70.05
44453;BME280;30155;52.164;21.236;2023-07-31T07:12:09;100038.64;;;19.54;69.78
44453;BME280;30155;52.164;21.236;2023-07-31T07:18:07;100040.85;;;19.62;69.66
44453;BME280;30155;52.164;21.236;2023-07-31T07:23:32;100036.80;;;19.68;69.31
44453;BME280;30155;52.164;21.236;2023-07-31T07:28:57;100038.08;;;19.72;69.11
44453;BME280;30155;52.164;21.236;2023-07-31T07:34:17;100040.61;;;19.93;68.81
44453;BME280;30155;52.164;21.236;2023-07-31T07:39:53;100046.00;;;20.47;68.06
44453;BME280;30155;52.164;21.236;2023-07-31T07:50:31;100040.49;;;21.37;66.32
44453;BME280;30155;52.164;21.236;2023-07-31T07:55:33;100042.52;;;21.71;65.44
44453;BME280;30155;52.164;21.236;2023-07-31T08:21:05;100030.63;;;23.64;60.33
44453;BME280;30155;52.164;21.236;2023-07-31T08:26:34;100027.16;;;23.58;59.91
44453;BME280;30155;52.164;21.236;2023-07-31T08:32:07;100029.15;;;23.31;59.81
44453;BME280;30155;52.164;21.236;2023-07-31T08:44:46;100029.58;;;25.23;55.94
44453;BME280;30155;52.164;21.236;2023-07-31T08:50:56;100025.92;;;25.03;56.45
44453;BME280;30155;52.164;21.236;2023-07-31T08:55:53;100021.39;;;24.47;56.08
44453;BME280;30155;52.164;21.236;2023-07-31T09:00:51;100017.63;;;23.98;56.70
44453;BME280;30155;52.164;21.236;2023-07-31T09:05:46;100017.50;;;23.90;56.95
44453;BME280;30155;52.164;21.236;2023-07-31T09:11:02;100017.16;;;23.86;56.35
44453;BME280;30155;52.164;21.236;2023-07-31T09:16:50;100020.54;;;23.97;56.00
44453;BME280;30155;52.164;21.236;2023-07-31T09:21:49;100017.13;;;24.91;54.06
44453;BME280;30155;52.164;21.236;2023-07-31T09:26:42;100009.16;;;25.14;53.91
44453;BME280;30155;52.164;21.236;2023-07-31T09:44:47;100022.83;;;26.37;49.14
44453;BME280;30155;52.164;21.236;2023-07-31T09:50:16;100024.08;;;26.78;48.94
44453;BME280;30155;52.164;21.236;2023-07-31T09:55:12;100013.95;;;27.59;47.35
44453;BME280;30155;52.164;21.236;2023-07-31T10:00:06;100014.13;;;29.88;43.46
44453;BME280;30155;52.164;21.236;2023-07-31T10:05:13;100008.27;;;30.97;41.83
44453;BME280;30155;52.164;21.236;2023-07-31T10:15:59;100002.10;;;34.66;36.27
44453;BME280;30155;52.164;21.236;2023-07-31T10:20:59;100004.66;;;34.69;35.44
44453;BME280;30155;52.164;21.236;2023-07-31T10:25:57;100005.81;;;33.00;35.36
44453;BME280;30155;52.164;21.236;2023-07-31T10:37:39;99991.00;;;33.81;35.37
44453;BME280;30155;52.164;21.236;2023-07-31T10:42:58;99995.15;;;31.45;36.87
44453;BME280;30155;52.164;21.236;2023-07-31T10:49:01;100002.42;;;29.31;38.88
44453;BME280;30155;52.164;21.236;2023-07-31T10:54:10;99997.14;;;29.68;39.78
44453;BME280;30155;52.164;21.236;2023-07-31T10:59:14;99989.98;;;31.69;38.66
44453;BME280;30155;52.164;21.236;2023-07-31T11:04:12;99986.64;;;32.95;36.20
44453;BME280;30155;52.164;21.236;2023-07-31T11:09:05;99989.55;;;32.08;36.58
44453;BME280;30155;52.164;21.236;2023-07-31T11:14:12;99996.40;;;30.36;37.57
44453;BME280;30155;52.164;21.236;2023-07-31T11:24:49;99988.54;;;30.78;37.83
44453;BME280;30155;52.164;21.236;2023-07-31T11:36:04;99989.71;;;30.19;38.03
44453;BME280;30155;52.164;21.236;2023-07-31T11:47:13;99983.45;;;29.32;37.97
44453;BME280;30155;52.164;21.236;2023-07-31T11:52:08;99978.16;;;29.17;38.10
44453;BME280;30155;52.164;21.236;2023-07-31T11:57:42;99977.33;;;28.70;38.09
44453;BME280;30155;52.164;21.236;2023-07-31T12:11:05;99970.10;;;27.33;39.58
44453;BME280;30155;52.164;21.236;2023-07-31T12:16:33;99971.59;;;27.21;39.59
44453;BME280;30155;52.164;21.236;2023-07-31T12:22:10;99963.27;;;26.98;39.29
44453;BME280;30155;52.164;21.236;2023-07-31T12:27:14;99969.25;;;26.62;39.57
44453;BME280;30155;52.164;21.236;2023-07-31T12:32:22;99965.90;;;26.41;39.85
44453;BME280;30155;52.164;21.236;2023-07-31T12:37:20;99955.46;;;26.49;40.30
44453;BME280;30155;52.164;21.236;2023-07-31T12:42:16;99952.29;;;26.46;39.55
44453;BME280;30155;52.164;21.236;2023-07-31T12:47:09;99957.19;;;26.17;39.56
44453;BME280;30155;52.164;21.236;2023-07-31T12:52:03;99954.95;;;26.01;39.87
44453;BME280;30155;52.164;21.236;2023-07-31T12:56:56;99953.58;;;25.95;39.67
44453;BME280;30155;52.164;21.236;2023-07-31T13:01:49;99951.20;;;25.86;39.68
44453;BME280;30155;52.164;21.236;2023-07-31T13:06:42;99943.84;;;25.81;39.92
44453;BME280;30155;52.164;21.236;2023-07-31T13:11:35;99935.27;;;25.82;40.03
44453;BME280;30155;52.164;21.236;2023-07-31T13:16:29;99932.27;;;25.88;40.24
44453;BME280;30155;52.164;21.236;2023-07-31T13:21:58;99931.13;;;26.02;39.94
44453;BME280;30155;52.164;21.236;2023-07-31T13:33:49;99913.67;;;26.49;39.63
44453;BME280;30155;52.164;21.236;2023-07-31T13:39:11;99914.32;;;26.18;40.42
44453;BME280;30155;52.164;21.236;2023-07-31T13:44:07;99906.59;;;26.17;40.40
44453;BME280;30155;52.164;21.236;2023-07-31T13:49:06;99901.25;;;27.03;39.86
44453;BME280;30155;52.164;21.236;2023-07-31T13:54:06;99904.29;;;27.50;39.14
44453;BME280;30155;52.164;21.236;2023-07-31T13:59:22;99903.48;;;27.83;38.62
44453;BME280;30155;52.164;21.236;2023-07-31T14:04:42;99892.08;;;27.99;38.07
44453;BME280;30155;52.164;21.236;2023-07-31T14:10:18;99895.75;;;27.89;38.43
44453;BME280;30155;52.164;21.236;2023-07-31T14:16:47;99897.45;;;27.40;38.10
44453;BME280;30155;52.164;21.236;2023-07-31T14:21:41;99888.16;;;26.82;38.65
44453;BME280;30155;52.164;21.236;2023-07-31T14:53:48;99873.70;;;25.30;40.53
44453;BME280;30155;52.164;21.236;2023-07-31T14:58:47;99871.24;;;25.54;40.76
44453;BME280;30155;52.164;21.236;2023-07-31T15:03:48;99864.67;;;25.84;40.51
44453;BME280;30155;52.164;21.236;2023-07-31T16:14:50;99828.96;;;24.28;42.04
44453;BME280;30155;52.164;21.236;2023-07-31T16:21:32;99822.28;;;24.11;42.67
44453;BME280;30155;52.164;21.236;2023-07-31T16:47:46;99815.08;;;23.48;44.29
44453;BME280;30155;52.164;21.236;2023-07-31T17:20:19;99821.10;;;22.68;48.18
44453;BME280;30155;52.164;21.236;2023-07-31T17:32:38;99824.84;;;22.44;50.30
44453;BME280;30155;52.164;21.236;2023-07-31T17:45:37;99831.29;;;22.15;50.67
44453;BME280;30155;52.164;21.236;2023-07-31T17:58:50;99844.55;;;21.86;52.26
44453;BME280;30155;52.164;21.236;2023-07-31T18:19:17;99863.44;;;21.30;54.72
44453;BME280;30155;52.164;21.236;2023-07-31T18:25:03;99875.72;;;21.27;54.47
44453;BME280;30155;52.164;21.236;2023-07-31T18:30:01;99877.84;;;21.27;53.55
44453;BME280;30155;52.164;21.236;2023-07-31T18:41:14;99884.12;;;21.33;53.02
44453;BME280;30155;52.164;21.236;2023-07-31T18:46:58;99880.98;;;21.32;53.25
44453;BME280;30155;52.164;21.236;2023-07-31T18:52:19;99875.87;;;21.28;53.29
44453;BME280;30155;52.164;21.236;2023-07-31T18:57:38;99879.81;;;21.17;53.97
44453;BME280;30155;52.164;21.236;2023-07-31T19:03:31;99883.25;;;20.97;54.62
44453;BME280;30155;52.164;21.236;2023-07-31T19:09:13;99883.98;;;20.74;55.14
44453;BME280;30155;52.164;21.236;2023-07-31T19:14:46;99883.89;;;20.47;55.14
44453;BME280;30155;52.164;21.236;2023-07-31T19:19:49;99880.31;;;20.29;55.25
44453;BME280;30155;52.164;21.236;2023-07-31T19:25:16;99886.32;;;20.14;55.99
44453;BME280;30155;52.164;21.236;2023-07-31T19:30:26;99882.29;;;19.99;56.18
44453;BME280;30155;52.164;21.236;2023-07-31T19:35:57;99883.08;;;19.86;56.86
44453;BME280;30155;52.164;21.236;2023-07-31T19:41:04;99884.92;;;19.78;57.30
44453;BME280;30155;52.164;21.236;2023-07-31T19:46:16;99888.58;;;19.74;57.59
44453;BME280;30155;52.164;21.236;2023-07-31T19:51:27;99887.40;;;19.72;57.83
44453;BME280;30155;52.164;21.236;2023-07-31T19:56:46;99892.27;;;19.68;58.02
44453;BME280;30155;52.164;21.236;2023-07-31T20:02:06;99889.90;;;19.60;58.10
44453;BME280;30155;52.164;21.236;2023-07-31T20:07:18;99893.26;;;19.54;58.56
44453;BME280;30155;52.164;21.236;2023-07-31T20:12:19;99892.09;;;19.47;58.98
44453;BME280;30155;52.164;21.236;2023-07-31T20:17:23;99889.64;;;19.36;58.96
44453;BME280;30155;52.164;21.236;2023-07-31T20:22:33;99887.73;;;19.24;59.39
44453;BME280;30155;52.164;21.236;2023-07-31T20:27:49;99882.89;;;19.16;59.82
44453;BME280;30155;52.164;21.236;2023-07-31T20:33:14;99875.13;;;19.12;60.14
44453;BME280;30155;52.164;21.236;2023-07-31T20:38:27;99867.24;;;19.11;60.52
44453;BME280;30155;52.164;21.236;2023-07-31T20:43:21;99850.43;;;19.10;60.95
44453;BME280;30155;52.164;21.236;2023-07-31T20:48:17;99842.11;;;19.06;61.33
44453;BME280;30155;52.164;21.236;2023-07-31T20:53:16;99840.55;;;19.05;61.79
44453;BME280;30155;52.164;21.236;2023-07-31T20:58:12;99830.02;;;19.05;62.26
44453;BME280;30155;52.164;21.236;2023-07-31T21:03:08;99818.15;;;19.02;62.30
44453;BME280;30155;52.164;21.236;2023-07-31T21:08:08;99810.84;;;19.01;62.47
44453;BME280;30155;52.164;21.236;2023-07-31T21:13:13;99808.49;;;18.97;62.74
44453;BME280;30155;52.164;21.236;2023-07-31T21:18:10;99803.77;;;18.96;62.95
44453;BME280;30155;52.164;21.236;2023-07-31T21:23:12;99799.67;;;18.93;62.76
44453;BME280;30155;52.164;21.236;2023-07-31T21:28:06;99799.73;;;18.86;62.91
44453;BME280;30155;52.164;21.236;2023-07-31T21:33:06;99796.65;;;18.83;63.37
44453;BME280;30155;52.164;21.236;2023-07-31T21:38:00;99798.18;;;18.79;63.42
44453;BME280;30155;52.164;21.236;2023-07-31T21:42:55;99798.90;;;18.72;63.78
44453;BME280;30155;52.164;21.236;2023-07-31T21:47:55;99794.82;;;18.62;64.14
44453;BME280;30155;52.164;21.236;2023-07-31T21:53:03;99784.96;;;18.52;64.30
44453;BME280;30155;52.164;21.236;2023-07-31T21:57:56;99782.41;;;18.43;64.51
44453;BME280;30155;52.164;21.236;2023-07-31T22:02:53;99780.27;;;18.38;64.71
44453;BME280;30155;52.164;21.236;2023-07-31T22:21:05;99753.88;;;18.05;65.47
44453;BME280;30155;52.164;21.236;2023-07-31T22:27:42;99755.56;;;17.89;65.59
44453;BME280;30155;52.164;21.236;2023-07-31T22:33:19;99747.52;;;17.75;65.87
44453;BME280;30155;52.164;21.236;2023-07-31T22:38:45;99746.14;;;17.62;66.07
44453;BME280;30155;52.164;21.236;2023-07-31T22:44:09;99744.27;;;17.53;66.34
44453;BME280;30155;52.164;21.236;2023-07-31T22:50:40;99744.14;;;17.51;66.70
44453;BME280;30155;52.164;21.236;2023-07-31T22:56:27;99745.36;;;17.52;66.84
44453;BME280;30155;52.164;21.236;2023-07-31T23:02:39;99739.58;;;17.58;66.68
44453;BME280;30155;52.164;21.236;2023-07-31T23:08:35;99739.42;;;17.64;66.80
44453;BME280;30155;52.164;21.236;2023-07-31T23:27:16;99725.09;;;17.75;66.81
